sensor_id;sensor_type;location;lat;lon;timestamp;pressure;altitude;pressure_sealevel;temperature;humidity
3697;BME280;60662;48.810;8.872;2023-03-13T09:07:54;95711.56;;;12.07;77.35
3697;BME280;60662;48.810;8.872;2023-03-13T09:08:56;95712.63;;;12.17;76.69
3697;BME280;60662;48.810;8.872;2023-03-13T09:09:58;95703.13;;;12.29;75.86
3697;BME280;60662;48.810;8.872;2023-03-13T09:11:02;95717.81;;;12.45;75.81
3697;BME280;60662;48.810;8.872;2023-03-13T09:12:04;95720.34;;;12.72;74.72
3697;BME280;60662;48.810;8.872;2023-03-13T09:13:06;95701.81;;;12.75;74.37
3697;BME280;60662;48.810;8.872;2023-03-13T09:14:09;95723.59;;;13.01;73.79
3697;BME280;60662;48.810;8.872;2023-03-13T09:15:11;95721.16;;;13.11;72.26
3697;BME280;60662;48.810;8.872;2023-03-13T09:16:15;95710.16;;;13.69;71.15
3697;BME280;60662;48.810;8.872;2023-03-13T09:17:17;95710.97;;;14.18;69.41
3697;BME280;60662;48.810;8.872;2023-03-13T09:18:18;95728.66;;;14.51;68.21
3697;BME280;60662;48.810;8.872;2023-03-13T09:19:20;95723.50;;;14.85;67.35
3697;BME280;60662;48.810;8.872;2023-03-13T09:20:21;95722.94;;;14.93;66.09
3697;BME280;60662;48.810;8.872;2023-03-13T09:21:25;95726.84;;;14.16;67.69
3697;BME280;60662;48.810;8.872;2023-03-13T09:22:26;95733.38;;;13.62;69.13
3697;BME280;60662;48.810;8.872;2023-03-13T09:24:51;95748.94;;;13.27;71.01
3697;BME280;60662;48.810;8.872;2023-03-13T09:25:54;95742.03;;;13.26;71.13
3697;BME280;60662;48.810;8.872;2023-03-13T09:32:54;95753.69;;;12.96;72.27
3697;BME280;60662;48.810;8.872;2023-03-13T09:33:57;95756.41;;;13.07;72.21
3697;BME280;60662;48.810;8.872;2023-03-13T09:34:58;95752.97;;;13.06;71.70
3697;BME280;60662;48.810;8.872;2023-03-13T09:36:00;95748.84;;;13.15;71.62
3697;BME280;60662;48.810;8.872;2023-03-13T09:37:01;95749.53;;;13.93;69.05
3697;BME280;60662;48.810;8.872;2023-03-13T09:38:03;95746.09;;;14.52;67.11
3697;BME280;60662;48.810;8.872;2023-03-13T09:39:07;95749.06;;;14.83;65.99
3697;BME280;60662;48.810;8.872;2023-03-13T09:40:13;95737.91;;;14.68;66.11
3697;BME280;60662;48.810;8.872;2023-03-13T09:41:19;95744.97;;;14.68;66.38
3697;BME280;60662;48.810;8.872;2023-03-13T09:42:36;95730.31;;;14.77;65.82
3697;BME280;60662;48.810;8.872;2023-03-13T09:43:49;95740.44;;;14.81;65.98
3697;BME280;60662;48.810;8.872;2023-03-13T09:44:55;95731.50;;;14.95;65.16
3697;BME280;60662;48.810;8.872;2023-03-13T09:46:03;95722.56;;;15.21;65.08
3697;BME280;60662;48.810;8.872;2023-03-13T09:47:21;95720.66;;;15.57;63.61
3697;BME280;60662;48.810;8.872;2023-03-13T09:48:30;95725.53;;;15.50;63.78
3697;BME280;60662;48.810;8.872;2023-03-13T09:49:52;95711.81;;;14.43;66.78
3697;BME280;60662;48.810;8.872;2023-03-13T09:51:06;95723.31;;;13.93;68.19
3697;BME280;60662;48.810;8.872;2023-03-13T09:53:33;95719.81;;;13.68;69.60
3697;BME280;60662;48.810;8.872;2023-03-13T09:54:41;95724.81;;;13.84;69.03
3697;BME280;60662;48.810;8.872;2023-03-13T09:55:44;95739.38;;;13.88;68.53
3697;BME280;60662;48.810;8.872;2023-03-13T09:56:52;95723.75;;;13.87;68.79
3697;BME280;60662;48.810;8.872;2023-03-13T09:58:01;95716.06;;;14.32;68.03
3697;BME280;60662;48.810;8.872;2023-03-13T09:59:15;95721.97;;;15.28;65.55
3697;BME280;60662;48.810;8.872;2023-03-13T10:00:24;95723.03;;;15.26;64.68
3697;BME280;60662;48.810;8.872;2023-03-13T10:01:29;95707.34;;;14.32;67.43
3697;BME280;60662;48.810;8.872;2023-03-13T10:02:34;95709.72;;;14.24;68.40
3697;BME280;60662;48.810;8.872;2023-03-13T10:03:44;95710.97;;;14.53;67.20
3697;BME280;60662;48.810;8.872;2023-03-13T10:06:14;95714.19;;;15.38;64.96
3697;BME280;60662;48.810;8.872;2023-03-13T10:07:18;95709.56;;;15.97;63.16
3697;BME280;60662;48.810;8.872;2023-03-13T10:08:23;95706.66;;;16.11;62.62
3697;BME280;60662;48.810;8.872;2023-03-13T10:09:29;95693.31;;;16.24;61.79
3697;BME280;60662;48.810;8.872;2023-03-13T10:16:08;95694.19;;;17.29;59.74
3697;BME280;60662;48.810;8.872;2023-03-13T10:17:30;95702.53;;;17.65;58.42
3697;BME280;60662;48.810;8.872;2023-03-13T10:18:32;95696.00;;;16.55;60.90
3697;BME280;60662;48.810;8.872;2023-03-13T10:19:37;95691.72;;;16.00;62.46
3697;BME280;60662;48.810;8.872;2023-03-13T10:20:42;95699.44;;;15.70;63.85
3697;BME280;60662;48.810;8.872;2023-03-13T10:21:51;95703.06;;;15.34;64.53
3697;BME280;60662;48.810;8.872;2023-03-13T10:23:01;95695.19;;;15.00;64.93
3697;BME280;60662;48.810;8.872;2023-03-13T10:25:37;95701.91;;;14.93;66.29
3697;BME280;60662;48.810;8.872;2023-03-13T10:26:39;95692.91;;;14.73;66.79
3697;BME280;60662;48.810;8.872;2023-03-13T10:27:48;95692.19;;;14.71;67.36
3697;BME280;60662;48.810;8.872;2023-03-13T10:28:52;95690.75;;;14.78;66.72
3697;BME280;60662;48.810;8.872;2023-03-13T10:29:53;95693.97;;;14.71;66.87
3697;BME280;60662;48.810;8.872;2023-03-13T10:32:25;95701.75;;;14.72;66.38
3697;BME280;60662;48.810;8.872;2023-03-13T10:33:28;95688.81;;;14.58;66.75
3697;BME280;60662;48.810;8.872;2023-03-13T10:34:55;95685.56;;;14.54;67.28
3697;BME280;60662;48.810;8.872;2023-03-13T10:36:04;95688.69;;;14.59;67.29
3697;BME280;60662;48.810;8.872;2023-03-13T10:37:12;95697.75;;;14.55;67.24
3697;BME280;60662;48.810;8.872;2023-03-13T10:38:18;95692.56;;;14.42;67.25
3697;BME280;60662;48.810;8.872;2023-03-13T10:39:21;95696.66;;;14.46;67.67
3697;BME280;60662;48.810;8.872;2023-03-13T10:40:26;95702.47;;;14.39;67.80
3697;BME280;60662;48.810;8.872;2023-03-13T10:41:29;95701.97;;;14.33;68.02
3697;BME280;60662;48.810;8.872;2023-03-13T10:42:34;95695.75;;;14.34;67.94
3697;BME280;60662;48.810;8.872;2023-03-13T10:43:49;95691.25;;;14.36;67.34
3697;BME280;60662;48.810;8.872;2023-03-13T10:44:57;95684.44;;;14.34;67.78
3697;BME280;60662;48.810;8.872;2023-03-13T10:45:59;95680.13;;;14.33;67.77
3697;BME280;60662;48.810;8.872;2023-03-13T10:47:02;95680.94;;;14.33;67.41
3697;BME280;60662;48.810;8.872;2023-03-13T10:48:17;95680.66;;;14.49;67.40
3697;BME280;60662;48.810;8.872;2023-03-13T10:49:21;95669.00;;;14.65;66.99
3697;BME280;60662;48.810;8.872;2023-03-13T10:50:24;95671.78;;;14.86;66.14
3697;BME280;60662;48.810;8.872;2023-03-13T10:51:54;95663.44;;;15.59;63.79
3697;BME280;60662;48.810;8.872;2023-03-13T10:52:56;95660.78;;;16.14;62.28
3697;BME280;60662;48.810;8.872;2023-03-13T10:53:58;95656.03;;;15.64;63.29
3697;BME280;60662;48.810;8.872;2023-03-13T10:55:06;95662.91;;;15.32;63.71
3697;BME280;60662;48.810;8.872;2023-03-13T10:56:13;95669.47;;;15.38;64.29
3697;BME280;60662;48.810;8.872;2023-03-13T10:58:29;95672.41;;;15.67;63.31
3697;BME280;60662;48.810;8.872;2023-03-13T10:59:39;95673.53;;;15.42;63.91
3697;BME280;60662;48.810;8.872;2023-03-13T11:00:43;95674.28;;;14.99;65.16
3697;BME280;60662;48.810;8.872;2023-03-13T11:01:44;95669.50;;;14.81;65.74
3697;BME280;60662;48.810;8.872;2023-03-13T11:02:46;95667.47;;;14.74;66.39
3697;BME280;60662;48.810;8.872;2023-03-13T11:03:49;95666.75;;;14.72;66.65
3697;BME280;60662;48.810;8.872;2023-03-13T11:04:52;95660.19;;;14.77;66.66
3697;BME280;60662;48.810;8.872;2023-03-13T11:05:58;95630.53;;;14.75;66.52
3697;BME280;60662;48.810;8.872;2023-03-13T11:07:04;95663.78;;;15.10;65.87
3697;BME280;60662;48.810;8.872;2023-03-13T11:08:20;95656.44;;;15.48;64.85
3697;BME280;60662;48.810;8.872;2023-03-13T11:09:22;95651.88;;;15.39;64.39
3697;BME280;60662;48.810;8.872;2023-03-13T11:10:27;95650.25;;;15.26;64.37
3697;BME280;60662;48.810;8.872;2023-03-13T11:11:52;95647.00;;;15.34;64.38
3697;BME280;60662;48.810;8.872;2023-03-13T11:12:56;95640.31;;;15.30;64.54
3697;BME280;60662;48.810;8.872;2023-03-13T11:14:11;95639.28;;;15.21;64.50
3697;BME280;60662;48.810;8.872;2023-03-13T11:15:24;95638.31;;;15.11;65.02
3697;BME280;60662;48.810;8.872;2023-03-13T11:16:28;95634.25;;;15.07;65.07
3697;BME280;60662;48.810;8.872;2023-03-13T11:17:39;95628.88;;;15.08;65.15
3697;BME280;60662;48.810;8.872;2023-03-13T11:21:46;95629.06;;;15.39;64.45
3697;BME280;60662;48.810;8.872;2023-03-13T11:24:24;95619.88;;;15.77;63.11
3697;BME280;60662;48.810;8.872;2023-03-13T11:27:02;95617.72;;;15.82;62.96
3697;BME280;60662;48.810;8.872;2023-03-13T11:28:21;95619.66;;;16.02;62.68
3697;BME280;60662;48.810;8.872;2023-03-13T11:29:56;95609.34;;;16.31;62.14
3697;BME280;60662;48.810;8.872;2023-03-13T11:31:01;95598.69;;;17.35;59.70
3697;BME280;60662;48.810;8.872;2023-03-13T11:32:13;95596.53;;;18.09;58.39
3697;BME280;60662;48.810;8.872;2023-03-13T11:34:39;95593.63;;;17.03;59.87
3697;BME280;60662;48.810;8.872;2023-03-13T11:35:52;95589.09;;;17.34;58.57
3697;BME280;60662;48.810;8.872;2023-03-13T11:37:04;95588.44;;;17.61;57.52
3697;BME280;60662;48.810;8.872;2023-03-13T11:38:18;95592.91;;;18.10;56.53
3697;BME280;60662;48.810;8.872;2023-03-13T11:39:46;95582.19;;;18.31;56.27
3697;BME280;60662;48.810;8.872;2023-03-13T11:46:17;95571.06;;;17.29;59.47
3697;BME280;60662;48.810;8.872;2023-03-13T11:49:50;95575.38;;;16.28;61.44
3697;BME280;60662;48.810;8.872;2023-03-13T11:53:27;95555.25;;;16.89;60.53
3697;BME280;60662;48.810;8.872;2023-03-13T11:55:11;95548.84;;;16.51;60.87
3697;BME280;60662;48.810;8.872;2023-03-13T11:56:22;95552.75;;;16.56;61.07
3697;BME280;60662;48.810;8.872;2023-03-13T11:57:30;95558.09;;;16.45;61.17
3697;BME280;60662;48.810;8.872;2023-03-13T11:58:50;95541.69;;;16.62;60.90
3697;BME280;60662;48.810;8.872;2023-03-13T12:01:22;95535.88;;;17.09;59.39
3697;BME280;60662;48.810;8.872;2023-03-13T12:02:30;95499.78;;;17.10;59.60
3697;BME280;60662;48.810;8.872;2023-03-13T12:04:54;95522.72;;;16.78;60.44
3697;BME280;60662;48.810;8.872;2023-03-13T12:05:58;95525.25;;;16.90;60.72
3697;BME280;60662;48.810;8.872;2023-03-13T12:08:39;95531.66;;;16.56;61.45
3697;BME280;60662;48.810;8.872;2023-03-13T12:09:54;95494.97;;;16.33;61.16
3697;BME280;60662;48.810;8.872;2023-03-13T12:11:28;95509.50;;;16.59;61.30
3697;BME280;60662;48.810;8.872;2023-03-13T12:12:46;95507.47;;;16.72;61.34
3697;BME280;60662;48.810;8.872;2023-03-13T12:13:56;95493.31;;;17.43;59.65
3697;BME280;60662;48.810;8.872;2023-03-13T12:16:18;95464.47;;;18.09;57.69
3697;BME280;60662;48.810;8.872;2023-03-13T12:19:30;95459.59;;;18.42;56.90
3697;BME280;60662;48.810;8.872;2023-03-13T12:20:43;95467.66;;;18.50;56.67
3697;BME280;60662;48.810;8.872;2023-03-13T12:21:49;95459.66;;;18.32;56.26
3697;BME280;60662;48.810;8.872;2023-03-13T12:22:59;95464.50;;;18.37;56.51
3697;BME280;60662;48.810;8.872;2023-03-13T12:24:22;95456.53;;;18.47;56.55
3697;BME280;60662;48.810;8.872;2023-03-13T12:25:36;95466.59;;;18.61;55.82
3697;BME280;60662;48.810;8.872;2023-03-13T12:26:46;95447.13;;;18.34;55.45
3697;BME280;60662;48.810;8.872;2023-03-13T12:27:54;95447.56;;;18.57;55.64
3697;BME280;60662;48.810;8.872;2023-03-13T12:30:42;95443.00;;;18.77;55.06
3697;BME280;60662;48.810;8.872;2023-03-13T12:34:41;95424.78;;;19.20;54.12
3697;BME280;60662;48.810;8.872;2023-03-13T12:37:20;95415.00;;;19.21;54.02
3697;BME280;60662;48.810;8.872;2023-03-13T12:38:29;95410.09;;;19.44;54.05
3697;BME280;60662;48.810;8.872;2023-03-13T12:39:52;95408.09;;;19.20;54.27
3697;BME280;60662;48.810;8.872;2023-03-13T12:41:07;95409.75;;;19.65;53.74
3697;BME280;60662;48.810;8.872;2023-03-13T12:43:49;95386.19;;;19.36;53.45
3697;BME280;60662;48.810;8.872;2023-03-13T12:45:14;95384.97;;;19.48;52.95
3697;BME280;60662;48.810;8.872;2023-03-13T12:49:47;95374.75;;;19.53;52.95
3697;BME280;60662;48.810;8.872;2023-03-13T12:53:23;95370.19;;;19.19;53.48
3697;BME280;60662;48.810;8.872;2023-03-13T12:55:57;95360.97;;;19.05;53.76
3697;BME280;60662;48.810;8.872;2023-03-13T13:00:17;95354.34;;;19.01;54.43
3697;BME280;60662;48.810;8.872;2023-03-13T13:01:34;95348.50;;;19.16;54.27
3697;BME280;60662;48.810;8.872;2023-03-13T13:02:37;95349.56;;;19.23;53.97
3697;BME280;60662;48.810;8.872;2023-03-13T13:03:54;95345.25;;;19.22;54.09
3697;BME280;60662;48.810;8.872;2023-03-13T13:04:59;95349.38;;;18.98;53.49
3697;BME280;60662;48.810;8.872;2023-03-13T13:06:08;95335.88;;;19.09;53.33
3697;BME280;60662;48.810;8.872;2023-03-13T13:07:32;95346.47;;;19.09;53.31
3697;BME280;60662;48.810;8.872;2023-03-13T13:08:40;95334.13;;;19.18;52.96
3697;BME280;60662;48.810;8.872;2023-03-13T13:15:25;95325.00;;;18.76;53.09
3697;BME280;60662;48.810;8.872;2023-03-13T13:16:28;95312.69;;;18.67;53.41
3697;BME280;60662;48.810;8.872;2023-03-13T13:17:40;95305.06;;;18.64;53.47
3697;BME280;60662;48.810;8.872;2023-03-13T13:18:44;95309.13;;;18.58;53.69
3697;BME280;60662;48.810;8.872;2023-03-13T13:19:46;95314.78;;;18.64;53.31
3697;BME280;60662;48.810;8.872;2023-03-13T13:23:42;95296.94;;;18.30;52.76
3697;BME280;60662;48.810;8.872;2023-03-13T13:24:50;95299.13;;;18.16;53.20
3697;BME280;60662;48.810;8.872;2023-03-13T13:25:54;95296.78;;;18.13;53.08
3697;BME280;60662;48.810;8.872;2023-03-13T13:26:56;95278.28;;;18.13;53.08
3697;BME280;60662;48.810;8.872;2023-03-13T13:30:30;95282.31;;;18.35;52.72
3697;BME280;60662;48.810;8.872;2023-03-13T13:32:53;95278.91;;;18.79;52.15
3697;BME280;60662;48.810;8.872;2023-03-13T13:33:55;95283.22;;;18.80;51.50
3697;BME280;60662;48.810;8.872;2023-03-13T13:35:03;95271.09;;;18.69;51.45
3697;BME280;60662;48.810;8.872;2023-03-13T13:38:30;95273.94;;;18.94;51.73
3697;BME280;60662;48.810;8.872;2023-03-13T13:39:40;95262.97;;;18.89;52.22
3697;BME280;60662;48.810;8.872;2023-03-13T13:43:36;95262.41;;;18.59;52.00
3697;BME280;60662;48.810;8.872;2023-03-13T13:44:56;95261.63;;;18.67;51.74
3697;BME280;60662;48.810;8.872;2023-03-13T13:46:26;95239.97;;;18.63;51.99
3697;BME280;60662;48.810;8.872;2023-03-13T13:47:30;95262.63;;;18.48;52.16
3697;BME280;60662;48.810;8.872;2023-03-13T13:48:36;95264.44;;;18.47;52.66
3697;BME280;60662;48.810;8.872;2023-03-13T13:49:52;95260.91;;;18.56;52.59
3697;BME280;60662;48.810;8.872;2023-03-13T13:53:29;95241.69;;;18.72;52.10
3697;BME280;60662;48.810;8.872;2023-03-13T13:55:47;95247.19;;;18.61;51.67
3697;BME280;60662;48.810;8.872;2023-03-13T13:57:00;95240.94;;;18.62;51.90
3697;BME280;60662;48.810;8.872;2023-03-13T13:58:22;95226.97;;;18.52;52.35
3697;BME280;60662;48.810;8.872;2023-03-13T13:59:45;95239.50;;;18.68;51.58
3697;BME280;60662;48.810;8.872;2023-03-13T14:00:55;95236.00;;;18.85;51.63
3697;BME280;60662;48.810;8.872;2023-03-13T14:03:17;95235.34;;;19.09;51.66
3697;BME280;60662;48.810;8.872;2023-03-13T14:04:27;95223.88;;;19.27;51.61
3697;BME280;60662;48.810;8.872;2023-03-13T14:05:31;95220.06;;;19.21;51.36
3697;BME280;60662;48.810;8.872;2023-03-13T14:06:34;95222.72;;;18.95;51.40
3697;BME280;60662;48.810;8.872;2023-03-13T14:08:42;95219.22;;;18.76;51.74
3697;BME280;60662;48.810;8.872;2023-03-13T14:11:22;95210.16;;;18.79;52.04
3697;BME280;60662;48.810;8.872;2023-03-13T14:12:36;95208.56;;;18.86;52.46
3697;BME280;60662;48.810;8.872;2023-03-13T14:13:39;95191.41;;;18.64;52.05
3697;BME280;60662;48.810;8.872;2023-03-13T14:14:40;95193.00;;;18.57;52.66
3697;BME280;60662;48.810;8.872;2023-03-13T14:15:47;95197.41;;;18.74;52.35
3697;BME280;60662;48.810;8.872;2023-03-13T14:16:55;95191.41;;;19.08;51.80
3697;BME280;60662;48.810;8.872;2023-03-13T14:19:29;95198.44;;;19.00;51.80
3697;BME280;60662;48.810;8.872;2023-03-13T14:20:52;95195.50;;;18.85;52.38
3697;BME280;60662;48.810;8.872;2023-03-13T14:21:59;95191.84;;;19.04;52.25
3697;BME280;60662;48.810;8.872;2023-03-13T14:23:05;95195.38;;;19.13;51.48
3697;BME280;60662;48.810;8.872;2023-03-13T14:24:13;95181.00;;;19.50;50.24
3697;BME280;60662;48.810;8.872;2023-03-13T14:25:15;95184.13;;;19.88;50.10
3697;BME280;60662;48.810;8.872;2023-03-13T14:26:22;95179.72;;;20.13;49.43
3697;BME280;60662;48.810;8.872;2023-03-13T14:27:24;95185.84;;;20.14;49.66
3697;BME280;60662;48.810;8.872;2023-03-13T14:28:28;95178.22;;;20.27;49.82
3697;BME280;60662;48.810;8.872;2023-03-13T14:29:29;95172.25;;;20.25;49.32
3697;BME280;60662;48.810;8.872;2023-03-13T14:30:31;95168.47;;;20.36;49.52
3697;BME280;60662;48.810;8.872;2023-03-13T14:31:37;95169.97;;;20.30;48.80
3697;BME280;60662;48.810;8.872;2023-03-13T14:32:39;95175.09;;;20.56;48.89
3697;BME280;60662;48.810;8.872;2023-03-13T14:33:41;95169.28;;;20.36;49.24
3697;BME280;60662;48.810;8.872;2023-03-13T14:34:42;95161.84;;;20.40;48.77
3697;BME280;60662;48.810;8.872;2023-03-13T14:35:44;95166.66;;;20.45;49.11
3697;BME280;60662;48.810;8.872;2023-03-13T14:36:51;95167.31;;;20.47;48.65
3697;BME280;60662;48.810;8.872;2023-03-13T14:38:02;95172.38;;;19.90;49.29
3697;BME280;60662;48.810;8.872;2023-03-13T14:39:03;95160.81;;;20.00;49.44
3697;BME280;60662;48.810;8.872;2023-03-13T14:40:26;95149.56;;;20.22;48.85
3697;BME280;60662;48.810;8.872;2023-03-13T14:41:30;95150.25;;;20.41;48.65
3697;BME280;60662;48.810;8.872;2023-03-13T14:42:38;95153.88;;;20.56;48.28
3697;BME280;60662;48.810;8.872;2023-03-13T14:43:42;95148.91;;;20.62;48.39
3697;BME280;60662;48.810;8.872;2023-03-13T14:44:44;95138.78;;;20.65;48.14
3697;BME280;60662;48.810;8.872;2023-03-13T14:45:48;95146.25;;;20.45;48.54
3697;BME280;60662;48.810;8.872;2023-03-13T14:47:04;95134.66;;;20.63;48.60
3697;BME280;60662;48.810;8.872;2023-03-13T14:48:18;95109.16;;;20.53;48.09
3697;BME280;60662;48.810;8.872;2023-03-13T14:49:21;95126.84;;;20.69;47.80
3697;BME280;60662;48.810;8.872;2023-03-13T14:50:26;95130.84;;;20.57;48.60
3697;BME280;60662;48.810;8.872;2023-03-13T14:51:27;95124.50;;;20.91;47.93
3697;BME280;60662;48.810;8.872;2023-03-13T14:52:31;95120.75;;;20.44;48.02
3697;BME280;60662;48.810;8.872;2023-03-13T14:53:32;95114.47;;;20.29;49.23
3697;BME280;60662;48.810;8.872;2023-03-13T14:54:36;95119.94;;;20.52;48.90
3697;BME280;60662;48.810;8.872;2023-03-13T14:55:38;95099.69;;;20.67;48.48
3697;BME280;60662;48.810;8.872;2023-03-13T14:56:42;95108.28;;;20.69;48.52
3697;BME280;60662;48.810;8.872;2023-03-13T14:58:00;95103.09;;;21.01;48.08
3697;BME280;60662;48.810;8.872;2023-03-13T14:59:06;95106.91;;;20.98;47.83
3697;BME280;60662;48.810;8.872;2023-03-13T15:01:27;95090.38;;;21.36;47.43
3697;BME280;60662;48.810;8.872;2023-03-13T15:02:31;95094.44;;;21.55;46.74
3697;BME280;60662;48.810;8.872;2023-03-13T15:03:32;95090.25;;;21.29;46.95
3697;BME280;60662;48.810;8.872;2023-03-13T15:04:54;95086.69;;;21.06;47.49
3697;BME280;60662;48.810;8.872;2023-03-13T15:07:07;95073.97;;;20.84;47.21
3697;BME280;60662;48.810;8.872;2023-03-13T15:08:22;95071.63;;;20.98;47.10
3697;BME280;60662;48.810;8.872;2023-03-13T15:09:25;95052.44;;;20.87;47.30
3697;BME280;60662;48.810;8.872;2023-03-13T15:10:33;95067.38;;;20.72;47.58
3697;BME280;60662;48.810;8.872;2023-03-13T15:11:57;95064.28;;;21.00;47.49
3697;BME280;60662;48.810;8.872;2023-03-13T15:13:16;95061.19;;;20.96;47.45
3697;BME280;60662;48.810;8.872;2023-03-13T15:14:35;95060.09;;;20.66;47.61
3697;BME280;60662;48.810;8.872;2023-03-13T15:15:37;95041.88;;;20.54;47.77
3697;BME280;60662;48.810;8.872;2023-03-13T15:16:38;95058.47;;;20.48;48.00
3697;BME280;60662;48.810;8.872;2023-03-13T15:17:40;95039.22;;;20.71;47.39
3697;BME280;60662;48.810;8.872;2023-03-13T15:18:41;95047.13;;;20.79;47.25
3697;BME280;60662;48.810;8.872;2023-03-13T15:19:47;95034.56;;;20.65;47.04
3697;BME280;60662;48.810;8.872;2023-03-13T15:20:53;95029.31;;;20.40;47.86
3697;BME280;60662;48.810;8.872;2023-03-13T15:21:55;95035.75;;;20.37;48.12
3697;BME280;60662;48.810;8.872;2023-03-13T15:22:57;95032.41;;;20.60;47.08
3697;BME280;60662;48.810;8.872;2023-03-13T15:24:10;95021.81;;;20.60;47.17
3697;BME280;60662;48.810;8.872;2023-03-13T15:25:18;95021.41;;;20.15;47.54
3697;BME280;60662;48.810;8.872;2023-03-13T15:26:20;95021.25;;;20.00;48.38
3697;BME280;60662;48.810;8.872;2023-03-13T15:27:24;95029.19;;;19.92;48.39
3697;BME280;60662;48.810;8.872;2023-03-13T15:28:25;95022.53;;;20.21;48.02
3697;BME280;60662;48.810;8.872;2023-03-13T15:29:26;95010.06;;;20.54;47.70
3697;BME280;60662;48.810;8.872;2023-03-13T15:30:28;95009.50;;;20.76;47.15
3697;BME280;60662;48.810;8.872;2023-03-13T15:31:30;95005.41;;;20.56;47.11
3697;BME280;60662;48.810;8.872;2023-03-13T15:32:37;94999.19;;;20.25;47.69
3697;BME280;60662;48.810;8.872;2023-03-13T15:33:41;94996.72;;;19.82;48.49
3697;BME280;60662;48.810;8.872;2023-03-13T15:34:43;94990.97;;;19.86;48.68
3697;BME280;60662;48.810;8.872;2023-03-13T15:35:45;94997.69;;;20.22;48.20
3697;BME280;60662;48.810;8.872;2023-03-13T15:36:46;94988.81;;;20.63;47.72
3697;BME280;60662;48.810;8.872;2023-03-13T15:37:48;94996.22;;;20.84;47.71
3697;BME280;60662;48.810;8.872;2023-03-13T15:38:50;94984.34;;;20.71;47.23
3697;BME280;60662;48.810;8.872;2023-03-13T15:39:53;94980.13;;;20.85;47.56
3697;BME280;60662;48.810;8.872;2023-03-13T15:40:54;94984.31;;;20.80;47.38
3697;BME280;60662;48.810;8.872;2023-03-13T15:41:57;94977.63;;;20.36;47.40
3697;BME280;60662;48.810;8.872;2023-03-13T15:42:58;94974.84;;;20.29;47.85
3697;BME280;60662;48.810;8.872;2023-03-13T15:43:59;94971.41;;;19.96;49.39
3697;BME280;60662;48.810;8.872;2023-03-13T15:45:01;94958.66;;;19.74;49.14
3697;BME280;60662;48.810;8.872;2023-03-13T15:46:05;94966.75;;;19.73;49.47
3697;BME280;60662;48.810;8.872;2023-03-13T15:47:10;94966.59;;;19.58;49.74
3697;BME280;60662;48.810;8.872;2023-03-13T15:48:15;94971.56;;;19.36;50.33
3697;BME280;60662;48.810;8.872;2023-03-13T15:49:17;94958.66;;;19.25;50.57
3697;BME280;60662;48.810;8.872;2023-03-13T15:50:19;94946.56;;;19.31;50.63
3697;BME280;60662;48.810;8.872;2023-03-13T15:51:20;94959.63;;;19.65;50.30
3697;BME280;60662;48.810;8.872;2023-03-13T15:52:22;94961.47;;;19.73;49.83
3697;BME280;60662;48.810;8.872;2023-03-13T15:53:32;94951.16;;;20.19;49.31
3697;BME280;60662;48.810;8.872;2023-03-13T15:54:35;94943.88;;;20.21;49.11
3697;BME280;60662;48.810;8.872;2023-03-13T15:55:37;94957.94;;;20.22;48.80
3697;BME280;60662;48.810;8.872;2023-03-13T15:56:39;94939.97;;;20.49;48.25
3697;BME280;60662;48.810;8.872;2023-03-13T15:57:45;94941.44;;;20.60;47.99
3697;BME280;60662;48.810;8.872;2023-03-13T15:58:48;94939.91;;;20.65;47.90
3697;BME280;60662;48.810;8.872;2023-03-13T15:59:51;94922.09;;;20.51;47.82
3697;BME280;60662;48.810;8.872;2023-03-13T16:00:53;94942.91;;;20.62;47.44
3697;BME280;60662;48.810;8.872;2023-03-13T16:01:55;94928.75;;;20.38;48.01
3697;BME280;60662;48.810;8.872;2023-03-13T16:02:56;94921.22;;;20.11;49.05
3697;BME280;60662;48.810;8.872;2023-03-13T16:03:58;94924.72;;;19.95;49.68
3697;BME280;60662;48.810;8.872;2023-03-13T16:05:00;94917.63;;;19.79;49.69
3697;BME280;60662;48.810;8.872;2023-03-13T16:06:11;94914.31;;;19.68;50.12
3697;BME280;60662;48.810;8.872;2023-03-13T16:07:15;94914.31;;;19.60;50.33
3697;BME280;60662;48.810;8.872;2023-03-13T16:08:23;94919.94;;;19.40;50.53
3697;BME280;60662;48.810;8.872;2023-03-13T16:09:36;94913.66;;;19.50;50.62
3697;BME280;60662;48.810;8.872;2023-03-13T16:10:38;94904.06;;;19.57;50.37
3697;BME280;60662;48.810;8.872;2023-03-13T16:11:39;94911.19;;;19.48;50.34
3697;BME280;60662;48.810;8.872;2023-03-13T16:12:41;94907.72;;;19.31;50.83
3697;BME280;60662;48.810;8.872;2023-03-13T16:13:42;94907.72;;;19.15;51.67
3697;BME280;60662;48.810;8.872;2023-03-13T16:14:44;94908.34;;;19.08;51.66
3697;BME280;60662;48.810;8.872;2023-03-13T16:15:46;94903.53;;;19.12;51.76
3697;BME280;60662;48.810;8.872;2023-03-13T16:16:47;94894.94;;;18.93;51.96
3697;BME280;60662;48.810;8.872;2023-03-13T16:17:49;94908.09;;;18.85;51.98
3697;BME280;60662;48.810;8.872;2023-03-13T16:18:51;94886.44;;;18.65;52.39
3697;BME280;60662;48.810;8.872;2023-03-13T16:19:53;94891.03;;;18.63;52.46
3697;BME280;60662;48.810;8.872;2023-03-13T16:20:55;94895.31;;;18.56;52.63
3697;BME280;60662;48.810;8.872;2023-03-13T16:21:57;94893.63;;;18.47;52.77
3697;BME280;60662;48.810;8.872;2023-03-13T16:22:59;94893.28;;;18.41;53.33
3697;BME280;60662;48.810;8.872;2023-03-13T16:24:04;94885.00;;;18.36;53.14
3697;BME280;60662;48.810;8.872;2023-03-13T16:25:06;94895.38;;;18.30;53.47
3697;BME280;60662;48.810;8.872;2023-03-13T16:26:14;94891.75;;;18.31;53.03
3697;BME280;60662;48.810;8.872;2023-03-13T16:27:17;94890.25;;;18.28;53.08
3697;BME280;60662;48.810;8.872;2023-03-13T16:28:19;94888.25;;;18.22;53.46
3697;BME280;60662;48.810;8.872;2023-03-13T16:29:21;94881.63;;;18.18;53.41
3697;BME280;60662;48.810;8.872;2023-03-13T16:30:25;94889.19;;;18.13;53.59
3697;BME280;60662;48.810;8.872;2023-03-13T16:31:29;94878.28;;;18.07;53.72
3697;BME280;60662;48.810;8.872;2023-03-13T16:32:31;94880.09;;;18.07;53.77
3697;BME280;60662;48.810;8.872;2023-03-13T16:33:33;94887.53;;;18.11;53.53
3697;BME280;60662;48.810;8.872;2023-03-13T16:34:34;94894.44;;;18.04;53.95
3697;BME280;60662;48.810;8.872;2023-03-13T16:35:36;94887.81;;;18.00;53.99
3697;BME280;60662;48.810;8.872;2023-03-13T16:36:38;94887.28;;;17.97;54.17
3697;BME280;60662;48.810;8.872;2023-03-13T16:37:39;94888.72;;;17.91;54.51
3697;BME280;60662;48.810;8.872;2023-03-13T16:38:41;94886.09;;;17.91;54.39